createdAt,value
2023-05-12T00:01:16.629Z,96893.75
2023-05-12T00:03:43.446Z,96892.91
2023-05-12T00:06:10.537Z,96894.53
2023-05-12T00:08:37.221Z,96892.19
2023-05-12T00:11:04.168Z,96907.19
2023-05-12T00:13:30.977Z,96905.78
2023-05-12T00:15:59.343Z,96891.50
2023-05-12T00:18:28.370Z,96893.94
2023-05-12T00:20:55.413Z,96889.38
2023-05-12T00:23:22.851Z,96898.72
2023-05-12T00:25:50.547Z,96912.13
2023-05-12T00:28:18.754Z,96899.09
2023-05-12T00:30:45.549Z,96906.50
2023-05-12T00:33:12.443Z,96908.13
2023-05-12T00:35:39.219Z,96915.22
2023-05-12T00:38:06.009Z,96899.53
2023-05-12T00:40:32.719Z,96911.78
2023-05-12T00:42:59.443Z,96910.50
2023-05-12T00:45:26.614Z,96901.13
2023-05-12T00:47:57.155Z,96898.59
2023-05-12T00:50:23.858Z,96895.59
2023-05-12T00:52:50.770Z,96899.22
2023-05-12T00:55:17.522Z,96894.94
2023-05-12T00:57:44.472Z,96896.56
2023-05-12T01:00:11.965Z,96910.41
2023-05-12T01:02:39.170Z,96900.59
2023-05-12T01:05:06.678Z,96899.16
2023-05-12T01:07:33.830Z,96902.63
2023-05-12T01:10:00.575Z,96900.38
2023-05-12T01:12:28.114Z,96899.38
2023-05-12T01:14:56.242Z,96902.44
2023-05-12T01:17:28.663Z,96887.41
2023-05-12T01:20:00.804Z,96901.50
2023-05-12T01:22:31.317Z,96906.00
2023-05-12T01:25:00.237Z,96909.66
2023-05-12T01:27:27.786Z,96907.19
2023-05-12T01:29:56.954Z,96906.38
2023-05-12T01:32:24.177Z,96903.13
2023-05-12T01:34:51.198Z,96890.88
2023-05-12T01:37:18.260Z,96899.59
2023-05-12T01:39:45.444Z,96905.50
2023-05-12T01:42:12.223Z,96902.25
2023-05-12T01:44:39.187Z,96914.94
2023-05-12T01:47:10.036Z,96900.81
2023-05-12T01:49:37.539Z,96909.53
2023-05-12T01:52:04.562Z,96914.38
2023-05-12T01:54:31.256Z,96896.69
2023-05-12T01:56:58.145Z,96904.19
2023-05-12T01:59:24.854Z,96897.88
2023-05-12T02:01:51.727Z,96905.41
2023-05-12T02:04:18.408Z,96907.59
2023-05-12T02:06:45.102Z,96905.78
2023-05-12T02:09:11.801Z,96897.34
2023-05-12T02:11:38.518Z,96901.81
2023-05-12T02:14:05.279Z,96905.66
2023-05-12T02:16:32.032Z,96898.41
2023-05-12T02:18:58.708Z,96900.50
2023-05-12T02:21:25.946Z,96904.69
2023-05-12T02:23:52.657Z,96893.47
2023-05-12T02:26:19.752Z,96903.63
2023-05-12T02:28:46.380Z,96916.81
2023-05-12T02:31:12.980Z,96909.09
2023-05-12T02:33:39.606Z,96922.72
2023-05-12T02:36:06.624Z,96909.28
2023-05-12T02:38:33.201Z,96906.41
2023-05-12T02:40:59.857Z,96910.69
2023-05-12T02:43:26.502Z,96911.22
2023-05-12T02:45:53.325Z,96906.75
2023-05-12T02:48:20.024Z,96919.31
2023-05-12T02:50:46.639Z,96909.53
2023-05-12T02:53:13.346Z,96917.63
2023-05-12T02:55:40.040Z,96915.19
2023-05-12T02:58:07.220Z,96912.25
2023-05-12T03:00:33.893Z,96917.19
2023-05-12T03:03:00.830Z,96920.25
2023-05-12T03:05:27.501Z,96920.44
2023-05-12T03:07:54.231Z,96920.81
2023-05-12T03:10:21.303Z,96932.63
2023-05-12T03:12:48.156Z,96914.75
2023-05-12T03:15:14.949Z,96917.53
2023-05-12T03:17:41.870Z,96916.09
2023-05-12T03:20:08.858Z,96914.22
2023-05-12T03:22:35.732Z,96929.25
2023-05-12T03:25:04.073Z,96916.66
2023-05-12T03:27:32.860Z,96916.84
2023-05-12T03:30:02.289Z,96933.34
2023-05-12T03:32:28.991Z,96918.28
2023-05-12T03:34:55.759Z,96925.19
2023-05-12T03:37:22.475Z,96921.28
2023-05-12T03:39:49.224Z,96929.81
2023-05-12T03:42:16.140Z,96937.88
2023-05-12T03:44:42.890Z,96927.72
2023-05-12T03:47:09.703Z,96938.53
2023-05-12T03:49:36.406Z,96938.91
2023-05-12T03:52:03.105Z,96928.06
2023-05-12T03:54:29.824Z,96937.63
2023-05-12T03:56:56.417Z,96938.13
2023-05-12T03:59:23.175Z,96939.16
2023-05-12T04:01:49.824Z,96923.97
2023-05-12T04:04:16.909Z,96938.78
2023-05-12T04:06:43.729Z,96939.69
2023-05-12T04:09:10.680Z,96929.03
2023-05-12T04:11:37.312Z,96936.94
2023-05-12T04:14:03.994Z,96955.13
2023-05-12T04:16:30.725Z,96949.56
2023-05-12T04:18:57.598Z,96942.66
2023-05-12T04:21:24.445Z,96946.75
2023-05-12T04:23:52.803Z,96950.22
2023-05-12T04:26:19.623Z,96951.84
2023-05-12T04:28:47.776Z,96938.38
2023-05-12T04:31:14.460Z,96948.22
2023-05-12T04:33:41.195Z,96962.88
2023-05-12T04:36:08.162Z,96955.59
2023-05-12T04:38:34.732Z,96969.69
2023-05-12T04:41:01.394Z,96968.31
2023-05-12T04:45:59.950Z,96972.19
2023-05-12T04:48:26.877Z,96976.47
2023-05-12T04:50:53.554Z,96989.97
2023-05-12T04:53:20.196Z,96981.81
2023-05-12T04:55:46.949Z,96990.38
2023-05-12T04:58:13.896Z,96985.91
2023-05-12T05:00:40.781Z,97010.75
2023-05-12T05:03:07.721Z,96994.81
2023-05-12T05:05:34.435Z,97021.69
2023-05-12T05:08:01.726Z,97005.00
2023-05-12T05:10:28.510Z,97026.22
2023-05-12T05:12:55.248Z,97025.78
2023-05-12T05:15:22.026Z,97032.75
2023-05-12T05:17:49.846Z,97026.34
2023-05-12T05:20:16.990Z,97038.78
2023-05-12T05:22:43.798Z,97041.69
2023-05-12T05:25:10.936Z,97044.56
2023-05-12T05:27:38.830Z,97040.41
2023-05-12T05:30:09.389Z,97037.22
2023-05-12T05:32:37.350Z,97057.19
2023-05-12T05:35:04.188Z,97052.72
2023-05-12T05:37:30.951Z,97044.44
2023-05-12T05:39:57.719Z,97040.13
2023-05-12T05:42:24.445Z,97043.72
2023-05-12T05:44:51.121Z,97054.16
2023-05-12T05:47:17.706Z,97062.31
2023-05-12T05:49:44.549Z,97061.63
2023-05-12T05:52:11.221Z,97056.72
2023-05-12T05:54:38.141Z,97056.34
2023-05-12T05:57:04.993Z,97048.22
2023-05-12T05:59:32.333Z,97049.84
2023-05-12T06:01:59.146Z,97065.19
2023-05-12T06:04:26.034Z,97071.91
2023-05-12T06:06:52.870Z,97071.72
2023-05-12T06:09:19.590Z,97084.53
2023-05-12T06:11:46.224Z,97072.38
2023-05-12T06:14:13.050Z,97082.25
2023-05-12T06:16:39.906Z,97079.06
2023-05-12T06:19:06.866Z,97077.91
2023-05-12T06:21:33.626Z,97094.88
2023-05-12T06:24:00.454Z,97086.84
2023-05-12T06:26:27.203Z,97098.28
2023-05-12T06:28:53.937Z,97089.56
2023-05-12T06:31:20.885Z,97088.19
2023-05-12T06:33:47.850Z,97096.53
2023-05-12T06:36:14.657Z,97100.16
2023-05-12T06:38:41.363Z,97107.59
2023-05-12T06:41:08.036Z,97098.81
2023-05-12T06:43:34.747Z,97116.38
2023-05-12T06:46:02.066Z,97107.00
2023-05-12T06:48:28.823Z,97098.03
2023-05-12T06:50:55.526Z,97113.31
2023-05-12T06:53:24.081Z,97114.94
2023-05-12T06:55:53.740Z,97119.66
2023-05-12T06:58:22.185Z,97113.97
2023-05-12T07:00:48.973Z,97106.97
2023-05-12T07:03:15.827Z,97111.44
2023-05-12T07:05:42.911Z,97115.50
2023-05-12T07:08:09.619Z,97120.44
2023-05-12T07:10:38.064Z,97126.97
2023-05-12T07:13:04.870Z,97116.59
2023-05-12T07:15:32.973Z,97117.59
2023-05-12T07:17:59.997Z,97118.59
2023-05-12T07:20:27.274Z,97125.22
2023-05-12T07:22:54.886Z,97120.03
2023-05-12T07:25:22.147Z,97117.56
2023-05-12T07:27:50.020Z,97122.88
2023-05-12T07:30:17.243Z,97104.66
2023-05-12T07:32:44.221Z,97113.44
2023-05-12T07:35:11.004Z,97118.97
2023-05-12T07:37:37.807Z,97124.72
2023-05-12T07:40:04.908Z,97116.00
2023-05-12T07:42:31.721Z,97116.59
2023-05-12T07:44:58.438Z,97118.44
2023-05-12T07:47:25.276Z,97128.19
2023-05-12T07:49:51.980Z,97116.34
2023-05-12T07:52:18.778Z,97136.34
2023-05-12T07:54:45.680Z,97132.38
2023-05-12T07:57:12.446Z,97124.78
2023-05-12T07:59:39.133Z,97144.13
2023-05-12T08:02:05.767Z,97140.25
2023-05-12T08:04:32.496Z,97132.31
2023-05-12T08:06:59.825Z,97133.25
2023-05-12T08:09:26.642Z,97136.22
2023-05-12T08:11:53.467Z,97130.28
2023-05-12T08:14:20.402Z,97147.78
2023-05-12T08:16:47.388Z,97138.91
2023-05-12T08:19:14.280Z,97147.59
2023-05-12T08:21:41.103Z,97135.75
2023-05-12T08:24:07.721Z,97145.63
2023-05-12T08:26:34.572Z,97144.16
2023-05-12T08:29:01.885Z,97138.00
2023-05-12T08:31:28.563Z,97151.47
2023-05-12T08:34:08.922Z,97158.13
2023-05-12T08:36:37.464Z,97143.41
2023-05-12T08:39:04.466Z,97144.53
2023-05-12T08:41:37.384Z,97153.34
2023-05-12T08:44:05.034Z,97166.75
2023-05-12T08:46:32.405Z,97158.91
2023-05-12T08:49:04.490Z,97164.84
2023-05-12T08:51:37.022Z,97164.53
2023-05-12T08:54:04.553Z,97177.44
2023-05-12T08:59:02.807Z,97158.78
2023-05-12T09:01:29.938Z,97166.88
2023-05-12T09:03:56.659Z,97176.97
2023-05-12T09:06:23.464Z,97162.88
2023-05-12T09:08:50.247Z,97169.56
2023-05-12T09:11:17.556Z,97176.47
2023-05-12T09:14:08.737Z,97184.50
2023-05-12T09:16:41.787Z,97178.00
2023-05-12T09:19:08.729Z,97165.72
2023-05-12T09:21:35.537Z,97178.75
2023-05-12T09:24:07.644Z,97175.41
2023-05-12T09:26:52.646Z,97169.72
2023-05-12T09:29:28.353Z,97173.22
2023-05-12T09:31:58.822Z,97168.63
2023-05-12T09:34:30.606Z,97166.13
2023-05-12T09:37:02.259Z,97165.59
2023-05-12T09:39:29.200Z,97165.19
2023-05-12T09:41:56.048Z,97179.78
2023-05-12T09:44:24.119Z,97176.53
2023-05-12T09:46:51.509Z,97171.69
2023-05-12T09:49:28.088Z,97163.41
2023-05-12T09:52:01.129Z,97167.53
2023-05-12T09:54:30.322Z,97170.00
2023-05-12T09:57:02.572Z,97173.19
2023-05-12T09:59:34.477Z,97168.84
2023-05-12T10:02:02.518Z,97171.53
2023-05-12T10:04:30.530Z,97168.88
2023-05-12T10:06:57.961Z,97179.59
2023-05-12T10:09:29.361Z,97176.03
2023-05-12T10:11:56.715Z,97167.19
2023-05-12T10:14:23.838Z,97173.94
2023-05-12T10:16:51.201Z,97188.47
2023-05-12T10:19:18.932Z,97180.69
2023-05-12T10:21:46.580Z,97185.00
2023-05-12T10:24:15.610Z,97181.28
2023-05-12T10:26:43.083Z,97176.59
2023-05-12T10:29:10.581Z,97178.16
2023-05-12T10:31:38.669Z,97176.31
2023-05-12T10:34:06.814Z,97174.47
2023-05-12T10:36:50.327Z,97172.69
2023-05-12T10:39:17.454Z,97175.97
2023-05-12T10:41:44.210Z,97183.97
2023-05-12T10:44:11.276Z,97177.81
2023-05-12T10:46:38.094Z,97181.53
2023-05-12T10:49:10.253Z,97192.84
2023-05-12T10:51:43.163Z,97189.75
2023-05-12T10:54:11.290Z,97189.47
2023-05-12T10:56:38.650Z,97176.84
2023-05-12T10:59:25.446Z,97173.72
2023-05-12T11:02:05.358Z,97188.28
2023-05-12T11:04:46.928Z,97174.50
2023-05-12T11:07:16.625Z,97172.06
2023-05-12T11:09:56.608Z,97172.69
2023-05-12T11:12:26.905Z,97172.84
2023-05-12T11:14:54.009Z,97174.38
2023-05-12T11:17:21.148Z,97172.63
2023-05-12T11:19:50.321Z,97163.13
2023-05-12T11:22:21.685Z,97164.84
2023-05-12T11:24:49.269Z,97167.31
2023-05-12T11:27:18.215Z,97171.09
2023-05-12T11:29:47.239Z,97177.38
2023-05-12T11:32:15.819Z,97181.69
2023-05-12T11:34:42.379Z,97170.84
2023-05-12T11:37:08.954Z,97184.09
2023-05-12T11:39:36.464Z,97179.44
2023-05-12T11:42:12.048Z,97174.63
2023-05-12T11:44:49.543Z,97179.84
2023-05-12T11:47:17.088Z,97180.16
2023-05-12T11:49:56.863Z,97182.13
2023-05-12T11:52:24.661Z,97181.59
2023-05-12T11:54:59.157Z,97173.22
2023-05-12T11:57:30.698Z,97171.66
2023-05-12T12:00:02.763Z,97175.41
2023-05-12T12:02:29.800Z,97177.47
2023-05-12T12:04:57.119Z,97167.50
2023-05-12T12:07:31.758Z,97172.59
2023-05-12T12:09:59.379Z,97183.91
2023-05-12T12:12:26.165Z,97181.31
2023-05-12T12:14:52.933Z,97176.44
2023-05-12T12:17:19.489Z,97180.19
2023-05-12T12:19:47.865Z,97194.19
2023-05-12T12:22:14.588Z,97178.09
2023-05-12T12:24:41.352Z,97195.38
2023-05-12T12:27:08.001Z,97188.13
2023-05-12T12:29:34.829Z,97200.06
2023-05-12T12:32:01.416Z,97196.03
2023-05-12T12:34:28.003Z,97204.97
2023-05-12T12:36:54.637Z,97187.06
2023-05-12T12:39:21.854Z,97207.28
2023-05-12T12:41:48.466Z,97203.00
2023-05-12T12:44:15.153Z,97201.00
2023-05-12T12:46:42.193Z,97192.66
2023-05-12T12:49:08.851Z,97202.91
2023-05-12T12:51:45.638Z,97198.19
2023-05-12T12:54:13.698Z,97204.50
2023-05-12T12:56:40.318Z,97218.47
2023-05-12T12:59:06.951Z,97197.59
2023-05-12T13:01:34.025Z,97209.31
2023-05-12T13:04:01.222Z,97216.13
2023-05-12T13:06:29.283Z,97204.97
2023-05-12T13:08:56.584Z,97204.38
2023-05-12T13:11:23.416Z,97207.81
2023-05-12T13:13:50.027Z,97201.25
2023-05-12T13:16:17.355Z,97200.47
2023-05-12T13:18:44.245Z,97198.34
2023-05-12T13:21:10.945Z,97196.16
2023-05-12T13:23:37.525Z,97190.53
2023-05-12T13:26:04.182Z,97197.94
2023-05-12T13:28:30.876Z,97195.50
2023-05-12T13:30:57.645Z,97201.84
2023-05-12T13:33:24.360Z,97216.00
2023-05-12T13:35:50.986Z,97210.84
2023-05-12T13:38:18.222Z,97204.84
2023-05-12T13:40:44.794Z,97209.25
2023-05-12T13:43:12.402Z,97201.53
2023-05-12T13:45:38.987Z,97196.81
2023-05-12T13:48:05.724Z,97207.28
2023-05-12T13:50:33.719Z,97210.16
2023-05-12T13:53:00.628Z,97196.13
2023-05-12T13:55:27.597Z,97207.13
2023-05-12T13:57:54.360Z,97210.53
2023-05-12T14:00:21.189Z,97206.88
2023-05-12T14:02:47.823Z,97198.06
2023-05-12T14:05:14.828Z,97201.22
2023-05-12T14:07:42.709Z,97208.41
2023-05-12T14:10:10.187Z,97209.22
2023-05-12T14:12:41.323Z,97197.06
2023-05-12T14:15:23.622Z,97200.44
2023-05-12T14:17:53.074Z,97202.75
2023-05-12T14:20:19.789Z,97200.84
2023-05-12T14:22:46.479Z,97183.56
2023-05-12T14:25:13.100Z,97195.16
2023-05-12T14:27:39.674Z,97189.19
2023-05-12T14:30:07.658Z,97178.66
2023-05-12T14:32:34.485Z,97183.84
2023-05-12T14:35:01.406Z,97178.97
2023-05-12T14:37:27.964Z,97177.81
2023-05-12T14:39:56.755Z,97183.75
2023-05-12T14:42:23.854Z,97194.06
2023-05-12T14:44:50.555Z,97192.03
2023-05-12T14:47:17.349Z,97186.66
2023-05-12T14:49:45.625Z,97189.31
2023-05-12T14:52:12.447Z,97190.38
2023-05-12T14:54:39.216Z,97190.94
2023-05-12T14:57:06.173Z,97187.19
2023-05-12T14:59:33.085Z,97180.59
2023-05-12T15:02:00.099Z,97174.56
2023-05-12T15:04:29.596Z,97195.88
2023-05-12T15:06:56.660Z,97182.75
2023-05-12T15:09:23.360Z,97183.91
2023-05-12T15:11:51.537Z,97179.22
2023-05-12T15:14:18.728Z,97183.41
2023-05-12T15:16:45.683Z,97185.97
2023-05-12T15:19:12.609Z,97199.78
2023-05-12T15:21:39.585Z,97194.50
2023-05-12T15:24:06.601Z,97191.41
2023-05-12T15:26:35.192Z,97188.84
2023-05-12T15:29:03.572Z,97186.19
2023-05-12T15:31:30.694Z,97187.13
2023-05-12T15:33:58.045Z,97182.59
2023-05-12T15:36:25.097Z,97172.13
2023-05-12T15:38:51.978Z,97167.50
2023-05-12T15:41:18.838Z,97167.28
2023-05-12T15:43:45.618Z,97174.72
2023-05-12T15:46:12.409Z,97182.59
2023-05-12T15:48:39.510Z,97191.81
2023-05-12T15:51:07.943Z,97194.50
2023-05-12T15:53:34.624Z,97193.63
2023-05-12T15:56:02.308Z,97198.56
2023-05-12T15:58:29.264Z,97189.84
2023-05-12T16:00:56.239Z,97200.31
2023-05-12T16:03:24.268Z,97210.59
2023-05-12T16:05:51.236Z,97204.63
2023-05-12T16:08:18.161Z,97212.50
2023-05-12T16:10:45.002Z,97207.00
2023-05-12T16:13:11.936Z,97219.63
2023-05-12T16:15:38.533Z,97217.31
2023-05-12T16:18:07.571Z,97211.06
2023-05-12T16:20:35.924Z,97220.75
2023-05-12T16:23:02.715Z,97221.66
2023-05-12T16:25:29.421Z,97213.78
2023-05-12T16:27:56.172Z,97227.69
2023-05-12T16:30:22.952Z,97226.34
2023-05-12T16:32:49.881Z,97215.41
2023-05-12T16:35:16.697Z,97227.63
2023-05-12T16:37:43.628Z,97238.53
2023-05-12T16:40:10.669Z,97236.09
2023-05-12T16:42:37.577Z,97232.56
2023-05-12T16:45:04.699Z,97235.75
2023-05-12T16:47:31.506Z,97229.59
2023-05-12T16:49:59.268Z,97225.78
2023-05-12T16:52:27.004Z,97226.66
2023-05-12T16:54:56.319Z,97225.72
2023-05-12T16:57:24.104Z,97239.13
2023-05-12T16:59:51.185Z,97240.53
2023-05-12T17:02:17.938Z,97231.94
2023-05-12T17:04:44.925Z,97238.69
2023-05-12T17:07:11.609Z,97237.28
2023-05-12T17:09:38.565Z,97229.06
2023-05-12T17:12:06.908Z,97254.81
2023-05-12T17:14:35.030Z,97249.44
2023-05-12T17:17:02.355Z,97253.56
2023-05-12T17:19:29.719Z,97245.56
2023-05-12T17:21:56.838Z,97242.47
2023-05-12T17:24:23.806Z,97248.63
2023-05-12T17:26:50.922Z,97249.03
2023-05-12T17:29:17.841Z,97249.25
2023-05-12T17:31:44.894Z,97244.38
2023-05-12T17:34:12.150Z,97252.16
2023-05-12T17:36:39.157Z,97260.69
2023-05-12T17:39:07.405Z,97264.75
2023-05-12T17:41:34.426Z,97257.78
2023-05-12T17:44:01.450Z,97252.91
2023-05-12T17:46:28.443Z,97265.19
2023-05-12T17:48:55.671Z,97258.88
2023-05-12T17:51:22.627Z,97258.50
2023-05-12T17:53:49.536Z,97271.53
2023-05-12T17:56:16.532Z,97269.97
2023-05-12T17:58:43.567Z,97266.44
2023-05-12T18:01:10.675Z,97260.13
2023-05-12T18:03:38.169Z,97290.78
2023-05-12T18:06:06.103Z,97269.00
2023-05-12T18:08:33.027Z,97271.72
2023-05-12T18:11:00.134Z,97273.41
2023-05-12T18:13:27.328Z,97295.69
2023-05-12T18:15:55.064Z,97276.41
2023-05-12T18:18:26.211Z,97283.00
2023-05-12T18:20:53.170Z,97301.84
2023-05-12T18:23:22.831Z,97293.78
2023-05-12T18:25:49.973Z,97304.06
2023-05-12T18:28:19.449Z,97294.34
2023-05-12T18:30:46.486Z,97286.91
2023-05-12T18:33:13.710Z,97278.25
2023-05-12T18:35:43.081Z,97289.31
2023-05-12T18:38:10.142Z,97300.38
2023-05-12T18:40:37.522Z,97294.28
2023-05-12T18:43:04.420Z,97295.50
2023-05-12T18:45:31.511Z,97288.81
2023-05-12T18:47:58.319Z,97297.59
2023-05-12T18:50:25.366Z,97298.78
2023-05-12T18:52:52.297Z,97309.00
2023-05-12T18:55:19.296Z,97306.13
2023-05-12T18:57:46.650Z,97310.97
2023-05-12T19:00:14.018Z,97318.50
2023-05-12T19:02:42.498Z,97325.59
2023-05-12T19:05:11.121Z,97320.28
2023-05-12T19:07:38.110Z,97326.75
2023-05-12T19:10:05.532Z,97332.44
2023-05-12T19:12:32.510Z,97341.41
2023-05-12T19:14:59.753Z,97341.81
2023-05-12T19:17:26.928Z,97355.06
2023-05-12T19:19:53.949Z,97365.00
2023-05-12T19:22:25.052Z,97359.19
2023-05-12T19:24:52.039Z,97365.66
2023-05-12T19:27:19.166Z,97350.94
2023-05-12T19:29:46.149Z,97368.84
2023-05-12T19:32:13.471Z,97369.00
2023-05-12T19:34:43.418Z,97359.31
2023-05-12T19:37:10.252Z,97372.38
2023-05-12T19:39:37.277Z,97369.44
2023-05-12T19:42:04.421Z,97377.13
2023-05-12T19:44:31.379Z,97367.66
2023-05-12T19:47:04.664Z,97375.06
2023-05-12T19:49:35.685Z,97373.69
2023-05-12T19:52:03.836Z,97373.22
2023-05-12T19:54:30.968Z,97378.38
2023-05-12T19:56:58.040Z,97379.31
2023-05-12T19:59:25.205Z,97389.50
2023-05-12T20:01:52.220Z,97379.41
2023-05-12T20:04:19.264Z,97375.53
2023-05-12T20:06:46.660Z,97378.09
2023-05-12T20:09:16.612Z,97374.84
2023-05-12T20:11:43.721Z,97377.19
2023-05-12T20:14:10.946Z,97373.03
2023-05-12T20:16:38.538Z,97373.69
2023-05-12T20:19:05.623Z,97369.53
2023-05-12T20:21:32.750Z,97380.63
2023-05-12T20:23:59.601Z,97384.03
2023-05-12T20:26:27.527Z,97389.66
2023-05-12T20:28:54.294Z,97386.41
2023-05-12T20:31:21.411Z,97385.56
2023-05-12T20:33:48.385Z,97398.41
2023-05-12T20:36:15.416Z,97392.25
2023-05-12T20:38:42.364Z,97384.56
2023-05-12T20:41:09.655Z,97384.75
2023-05-12T20:43:36.629Z,97390.84
2023-05-12T20:46:04.343Z,97387.25
2023-05-12T20:48:31.358Z,97393.06
2023-05-12T20:50:58.427Z,97394.63
2023-05-12T20:53:25.484Z,97402.19
2023-05-12T20:55:52.264Z,97401.63
2023-05-12T20:58:19.155Z,97398.22
2023-05-12T21:00:45.884Z,97398.78
2023-05-12T21:03:17.131Z,97399.28
2023-05-12T21:05:47.837Z,97390.75
2023-05-12T21:08:14.686Z,97402.69
2023-05-12T21:10:41.577Z,97405.84
2023-05-12T21:13:11.499Z,97405.66
2023-05-12T21:15:38.503Z,97403.22
2023-05-12T21:18:05.255Z,97401.88
2023-05-12T21:20:32.142Z,97402.63
2023-05-12T21:22:59.029Z,97408.56
2023-05-12T21:25:26.116Z,97420.84
2023-05-12T21:27:53.262Z,97406.19
2023-05-12T21:30:23.163Z,97407.38
2023-05-12T21:32:50.753Z,97403.94
2023-05-12T21:35:20.338Z,97412.75
2023-05-12T21:37:49.532Z,97415.28
2023-05-12T21:40:19.939Z,97408.25
2023-05-12T21:42:47.076Z,97405.75
2023-05-12T21:45:14.016Z,97394.94
2023-05-12T21:47:41.066Z,97396.72
2023-05-12T21:50:08.288Z,97412.47
2023-05-12T21:52:35.824Z,97400.09
2023-05-12T21:55:04.811Z,97402.72
2023-05-12T21:57:31.923Z,97401.38
2023-05-12T22:00:03.892Z,97405.66
2023-05-12T22:02:31.067Z,97410.91
2023-05-12T22:04:57.841Z,97408.00
2023-05-12T22:07:24.780Z,97398.00
2023-05-12T22:09:52.100Z,97411.91
2023-05-12T22:12:19.257Z,97406.38
2023-05-12T22:14:46.118Z,97408.44
2023-05-12T22:17:13.066Z,97400.53
2023-05-12T22:19:39.920Z,97406.09
2023-05-12T22:22:06.872Z,97405.72
2023-05-12T22:24:33.749Z,97415.34
2023-05-12T22:27:00.637Z,97408.47
2023-05-12T22:29:27.483Z,97408.19
2023-05-12T22:31:54.182Z,97414.66
2023-05-12T22:34:21.901Z,97420.28
2023-05-12T22:36:48.810Z,97411.06
2023-05-12T22:39:15.857Z,97429.81
2023-05-12T22:41:42.771Z,97414.56
2023-05-12T22:44:10.014Z,97415.94
2023-05-12T22:46:36.893Z,97410.69
2023-05-12T22:49:03.926Z,97414.66
2023-05-12T22:51:33.255Z,97417.66
2023-05-12T22:54:00.261Z,97411.75
2023-05-12T22:56:27.300Z,97414.72
2023-05-12T22:58:54.265Z,97413.47
2023-05-12T23:01:21.333Z,97412.81
2023-05-12T23:03:48.149Z,97420.91
2023-05-12T23:06:15.222Z,97409.88
2023-05-12T23:08:42.265Z,97421.41
2023-05-12T23:11:09.737Z,97412.13
2023-05-12T23:13:36.660Z,97409.53
2023-05-12T23:16:06.597Z,97415.97
2023-05-12T23:18:33.474Z,97413.47
2023-05-12T23:21:00.435Z,97402.63
2023-05-12T23:23:27.430Z,97412.16
2023-05-12T23:25:54.988Z,97412.34
2023-05-12T23:28:22.104Z,97394.78
2023-05-12T23:30:49.133Z,97397.59
2023-05-12T23:33:16.318Z,97391.97
2023-05-12T23:35:43.543Z,97406.31
2023-05-12T23:38:10.673Z,97394.75
2023-05-12T23:40:39.426Z,97394.28
2023-05-12T23:43:06.931Z,97393.28
2023-05-12T23:45:34.416Z,97398.59
2023-05-12T23:48:01.333Z,97393.66
2023-05-12T23:50:28.150Z,97395.31
2023-05-12T23:52:54.978Z,97396.28
2023-05-12T23:55:21.839Z,97398.25
2023-05-12T23:57:49.320Z,97398.91
